Tiempo atmosférico en la estación meteorológica de Atzeneta Del Maestrat, Castelló/Castellón (420 m.)

Fecha
DESCASC
Temp. máxima en grados centígrados (hora)
DESCASC
Temp. mínima en grados centígrados (hora)
DESCASC
Temp. media en grados centígrados
DESCASC
Racha de viento máxima en m/sg (hora)
DESCASC
Velocidad máxima media en intervalos de 10 minutos(hora)
DESCASC
Precipitaciones diarias en mm
DESCASC
Precipitaciones de 00:00 a 06:00 en mm
DESCASC
Precipitaciones de 06:00 a 12:00 en mm
DESCASC
Precipitaciones de 12:00 a 18:00 en mm
DESCASC
Precipitaciones de 18:00 a 24:00 en mm
DESCASC
21-08-2017 32.1 (15:50) 19 (07:40) 25.5 8.89 (13:00) 5.28 (16:40) 0 0 0 0 0
20-08-2017 29.5 (12:30) 16.8 (07:50) 23.1 8.33 (13:40) 4.72 (13:40) 0 0 0 0 0
19-08-2017 30.4 (14:40) 19.4 (07:40) 24.9 7.78 (15:20) 4.72 (14:20) 0 0 0 0 0
18-08-2017 34.2 (14:40) 17.8 (07:30) 26 9.44 (14:00) 6.11 (13:40) 0 0 0 0 0
17-08-2017 33.5 (16:10) 18.3 (00:00) 25.9 8.33 (18:30) 5 (18:30) 0 0 0 0 0
16-08-2017 32.4 (16:30) 18.8 (00:00) 25.6 6.39 (14:50) 3.61 (16:50) 0.2 0 0 0.2 0
15-08-2017 31.3 (15:30) 15 (00:00) 23.1 8.33 (13:30) 5.56 (17:30) 0 0 0 0 0
14-08-2017 31.7 (14:30) 14.3 (07:20) 23 8.89 (15:10) 5.28 (15:20) 0 0 0 0 0
13-08-2017 30.6 (14:50) 13.6 (00:00) 22.1 8.89 (13:20) 4.72 (14:40) 0 0 0 0 0
12-08-2017 28.8 (13:20) 10.8 (00:00) 19.8 9.17 (14:30) 5.56 (14:30) 0 0 0 0 0
11-08-2017 29.4 (16:00) 10.9 (00:00) 20.1 10.28 (16:20) 5.56 (16:30) 0 0 0 0 0
10-08-2017 27.8 (15:40) 12.9 (00:00) 20.3 12.5 (10:30) 6.39 (10:40) 4.6 4.6 0 0 0
09-08-2017 26.8 (14:30) 15.7 (00:00) 21.2 13.06 (18:10) 6.39 (18:20) 6.6 0 0 1.8 4.8
08-08-2017 32.8 (16:00) 19 (00:00) 25.9 11.67 (16:00) 5.56 (16:20) 0 0 0 0 0
07-08-2017 33.2 (15:30) 19.4 (00:00) 26.3 10.56 (14:50) 6.94 (15:50) 0 0 0 0 0
06-08-2017 29.3 (12:40) 18.1 (00:00) 23.7 8.06 (13:20) 4.72 (13:10) 0 0 0 0 0
05-08-2017 37.6 (14:10) 20 (00:00) 28.8 8.33 (15:10) 5.83 (15:10) 0.8 0 0 0 0.8
04-08-2017 37.5 (16:50) 19.2 (00:00) 28.4 9.72 (16:40) 5.28 (14:50) 0 0 0 0 0
03-08-2017 37.8 (14:20) 17.3 (00:00) 27.5 10 (14:40) 6.11 (14:40) 0 0 0 0 0
02-08-2017 31.1 (12:00) 18.6 (00:00) 24.9 7.78 (13:40) 5.56 (13:40) 0.4 0.2 0 0.2 0
01-08-2017 29.8 (13:10) 21.2 (00:00) 25.5 7.22 (13:20) 5.28 (13:20) 0.2 0 0 0.2 0
31-07-2017 33.1 (17:30) 19.8 (00:00) 26.4 8.89 (16:00) 5 (14:50) 0 0 0 0 0
30-07-2017 35 (15:20) 17.8 (00:00) 26.4 8.06 (14:50) 5 (16:00) 0 0 0 0 0
29-07-2017 34.2 (14:10) 21.3 (00:00) 27.8 9.17 (16:10) 5.28 (15:30) 0 0 0 0 0
28-07-2017 33.5 (13:20) 17.6 (00:00) 25.6 9.17 (13:50) 5.28 (13:50) 0 0 0 0 0
27-07-2017 35.9 (14:30) 16.5 (00:00) 26.2 7.78 (12:40) 5 (12:50) 0 0 0 0 0
26-07-2017 32.2 (14:20) 13.2 (00:00) 22.7 9.17 (15:20) 5.56 (14:50) 0 0 0 0 0
25-07-2017 31.6 (14:40) 16.6 (00:00) 24.1 12.22 (14:50) 6.39 (08:50) 0 0 0 0 0
24-07-2017 32.5 (17:30) 17.7 (00:00) 25.1 10.28 (23:20) 5.56 (10:40) 0 0 0 0 0
23-07-2017 30.1 (15:00) 18.3 (00:00) 24.2 10.28 (17:40) 6.11 (17:40) 0 0 0 0 0

Gráficas

Temp. máximas Temp. mínimas Temp. medias Precipitaciones Rachas de viento máximas Velocidades máximas media en intervalos de 10 minutos

Datos horarios

Fecha y hora oficial Temperatura (ºC) Velocidad del viento (km/h) Dirección del viento Racha (km/h) Dirección de racha Precipitación (mm) Presión (hPa) Tendencia (hPa) Humedad (%)
2017-08-21 23:00:00 21.6 5 Noroeste 8 Noroeste 0 -- -- 78
2017-08-21 22:00:00 22.8 0 Calma 14 Sur 0 -- -- 76
2017-08-21 21:00:00 23.8 9 Sur 23 Sudeste 0 -- -- 73
2017-08-21 20:00:00 26.2 13 Sur 24 Sur 0 -- -- 64
2017-08-21 19:00:00 28.6 15 Sur 24 Sur 0 -- -- 56
2017-08-21 18:00:00 30.2 16 Sur 27 Sudeste 0 -- -- 51
2017-08-21 17:00:00 31.1 17 Sur 29 Sudeste 0 -- -- 50
2017-08-21 16:00:00 32.1 17 Sur 28 Sudeste 0 -- -- 48
2017-08-21 15:00:00 32 15 Sur 29 Sudeste 0 -- -- 49
2017-08-21 14:00:00 31.4 14 Sur 28 Sudeste 0 -- -- 50
2017-08-21 13:00:00 30.6 17 Sudeste 32 Sudeste 0 -- -- 52
2017-08-21 12:00:00 29.7 14 Sudeste 26 Sur 0 -- -- 54
2017-08-21 11:00:00 26.9 5 Sudeste 11 Sudeste 0 -- -- 62
2017-08-21 10:00:00 23.6 2 Este 7 Este 0 -- -- 63
2017-08-21 09:00:00 20.5 3 Este 6 Sudeste 0 -- -- 65
2017-08-21 08:00:00 19.1 2 Sudoeste 5 Nordeste 0 -- -- 74
2017-08-21 07:00:00 19.2 4 Nordeste 9 Norte 0 -- -- 74
2017-08-21 06:00:00 19.8 3 Norte 7 Sudeste 0 -- -- 78
2017-08-21 05:00:00 21.3 5 Sudeste 8 Sur 0 -- -- 77
2017-08-21 04:00:00 21.9 2 Este 7 Norte 0 -- -- 81
2017-08-21 03:00:00 21.9 5 Noroeste 8 Noroeste 0 -- -- 81
2017-08-21 02:00:00 22.6 0 Calma 5 Norte 0 -- -- 82
2017-08-21 01:00:00 22.8 0 Calma 3 Noroeste 0 -- -- 82
2017-08-21 00:00:00 22.6 4 Noroeste 6 Sudoeste 0 -- -- 82
2017-08-20 23:00:00 22.5 0 Calma 6 Sur 0 -- -- 82
2017-08-20 22:00:00 22.7 4 Sur 10 Sur 0 -- -- 80
2017-08-20 21:00:00 23.8 6 Sur 16 Sur 0 -- -- 79
2017-08-20 20:00:00 24.7 11 Sur 21 Sur 0 -- -- 76
2017-08-20 19:00:00 25.8 10 Sur 21 Sudoeste 0 -- -- 71
2017-08-20 18:00:00 26.7 12 Sur 22 Sur 0 -- -- 67
2017-08-20 17:00:00 27.3 13 Sur 21 Sur 0 -- -- 65
2017-08-20 16:00:00 27.4 11 Sur 21 Sudeste 0 -- -- 64
2017-08-20 15:00:00 27.1 10 Sudeste 26 Sudeste 0 -- -- 62
2017-08-20 14:00:00 28.3 13 Sudeste 30 Sudeste 0 -- -- 56
2017-08-20 13:00:00 29.3 13 Sudeste 25 Sudeste 0 -- -- 51
2017-08-20 12:00:00 28 14 Sudeste 25 Sudeste 0 -- -- 49
2017-08-20 11:00:00 28.1 8 Sudeste 17 Sudeste 0 -- -- 41
2017-08-20 10:00:00 24.6 0 Calma 7 Sudeste 0 -- -- 53
2017-08-20 09:00:00 21.1 3 Este 6 Sudeste 0 -- -- 75
2017-08-20 08:00:00 17.1 3 Sudoeste 6 Sudoeste 0 -- -- 88
2017-08-20 07:00:00 17.1 0 Calma 4 Noroeste 0 -- -- 87
2017-08-20 06:00:00 18 2 Norte 4 Sudeste 0 -- -- 88
2017-08-20 05:00:00 18.5 2 Sudoeste 4 Noroeste 0 -- -- 87
2017-08-20 04:00:00 19.3 0 Calma 5 Sudoeste 0 -- -- 87
2017-08-20 03:00:00 19.7 3 Sudoeste 4 Este 0 -- -- 86
2017-08-20 02:00:00 20.4 0 Calma 6 Noroeste 0 -- -- 85
2017-08-20 01:00:00 21.2 0 Calma 8 Noroeste 0 -- -- 82
2017-08-20 00:00:00 21.8 5 Noroeste 8 Noroeste 0 -- -- 81
2017-08-19 23:00:00 22.5 4 Noroeste 6 Norte 0 -- -- 77
2017-08-19 22:00:00 23.7 0 Calma 6 Este 0 -- -- 74
2017-08-19 21:00:00 24.6 3 Sudoeste 12 Sudeste 0 -- -- 71
2017-08-19 20:00:00 25.5 7 Sudeste 15 Sudeste 0 -- -- 69
2017-08-19 19:00:00 26.1 10 Sudeste 19 Sudeste 0 -- -- 66
2017-08-19 18:00:00 26.9 10 Sudeste 22 Sudeste 0 -- -- 63
2017-08-19 17:00:00 27.5 10 Sudeste 27 Sudeste 0 -- -- 61
2017-08-19 16:00:00 27.8 10 Sudeste 28 Sudeste 0 -- -- 59
2017-08-19 15:00:00 28.7 16 Sudeste 28 Sudeste 0 -- -- 55
2017-08-19 14:00:00 30.3 16 Sur 28 Sudeste 0 -- -- 50
2017-08-19 13:00:00 29.6 12 Sudeste 23 Sudeste 0 -- -- 52
2017-08-19 12:00:00 28 9 Sudeste 24 Sudeste 0 -- -- 55
2017-08-19 11:00:00 27.9 8 Sur 15 Este 0 -- -- 45
2017-08-19 10:00:00 25.2 2 Sudeste 5 Este 0 -- -- 45
2017-08-19 09:00:00 22.5 0 Calma 4 Sur 0 -- -- 59
2017-08-19 08:00:00 19.5 0 Calma 6 Noroeste 0 -- -- 70
2017-08-19 07:00:00 19.9 3 Oeste 6 Sudeste 0 -- -- 67
2017-08-19 06:00:00 22 2 Sur 10 Nordeste 0 -- -- 60
2017-08-19 05:00:00 23.3 4 Sudeste 15 Noroeste 0 -- -- 58
2017-08-19 04:00:00 24.3 8 Norte 17 Norte 0 -- -- 56
2017-08-19 03:00:00 24.4 6 Nordeste 13 Norte 0 -- -- 55
2017-08-19 02:00:00 23.4 5 Nordeste 8 Nordeste 0 -- -- 59
2017-08-19 01:00:00 23.2 3 Nordeste 10 Norte 0 -- -- 63
2017-08-19 00:00:00 23.6 0 Calma 8 Oeste 0 -- -- 63
2017-08-18 23:00:00 24.7 0 Calma 10 Noroeste 0 -- -- 56
2017-08-18 22:00:00 25.9 6 Noroeste 9 Noroeste 0 -- -- 54
2017-08-18 21:00:00 27.8 4 Este 10 Sudeste 0 -- -- 44
2017-08-18 20:00:00 29.1 8 Sudeste 18 Sudeste 0 -- -- 45
2017-08-18 19:00:00 31.1 8 Sudeste 17 Sur 0 -- -- 48
2017-08-18 18:00:00 31.8 13 Sudeste 26 Sudeste 0 -- -- 42
2017-08-18 17:00:00 33.3 11 Sur 26 Sur 0 -- -- 38
2017-08-18 16:00:00 34 18 Sudeste 30 Sudeste 0 -- -- 36
2017-08-18 15:00:00 34.2 19 Sur 32 Sur 0 -- -- 36
2017-08-18 14:00:00 33.8 21 Sur 34 Sudeste 0 -- -- 40
2017-08-18 13:00:00 33 19 Sur 29 Sur 0 -- -- 43
2017-08-18 12:00:00 31.4 13 Sudeste 24 Sudeste 0 -- -- 44
2017-08-18 11:00:00 27.7 4 Noroeste 10 Oeste 0 -- -- 56
2017-08-18 10:00:00 25.2 2 Norte 5 Sudeste 0 -- -- 62
2017-08-18 09:00:00 21.6 3 Este 5 Nordeste 0 -- -- 75
2017-08-18 08:00:00 18.2 0 Calma 3 Sur 0 -- -- 87
2017-08-18 07:00:00 18 0 Calma 2 Sudeste 0 -- -- 85
2017-08-18 06:00:00 18.6 0 Calma 2 Sudeste 0 -- -- 83
2017-08-18 05:00:00 19.2 0 Calma -- -- 0 -- -- 82
2017-08-18 04:00:00 19.6 0 Calma 3 Oeste 0 -- -- 80
2017-08-18 03:00:00 20.3 0 Calma 5 Noroeste 0 -- -- 78
2017-08-18 02:00:00 20.9 0 Calma 2 Oeste 0 -- -- 76
2017-08-18 01:00:00 21.7 0 Calma 4 Noroeste 0 -- -- 74
2017-08-18 00:00:00 22.4 0 Calma 9 Noroeste 0 -- -- 72
2017-08-17 23:00:00 23.7 5 Noroeste 8 Noroeste 0 -- -- 69
2017-08-17 22:00:00 25.4 0 Calma 15 Sur 0 -- -- 67
2017-08-17 21:00:00 27.3 8 Sudeste 14 Sudeste 0 -- -- 56
2017-08-17 20:00:00 30.2 9 Sur 17 Sudeste 0 -- -- 46
2017-08-17 19:00:00 31.6 13 Sur 30 Sudeste 0 -- -- 44
2017-08-17 18:00:00 32.4 14 Sudeste 27 Sudeste 0 -- -- 41
2017-08-17 17:00:00 33.3 12 Sudeste 26 Sudeste 0 -- -- 38
2017-08-17 16:00:00 33.2 13 Sudeste 29 Sudeste 0 -- -- 36
2017-08-17 15:00:00 32.5 13 Este 26 Este 0 -- -- 37
2017-08-17 14:00:00 32.9 15 Sudeste 25 Sudeste 0 -- -- 39
2017-08-17 13:00:00 31.7 12 Sudeste 22 Sudeste 0 -- -- 40
2017-08-17 12:00:00 30.6 7 Sudeste 15 Sudeste 0 -- -- 43
2017-08-17 11:00:00 28.2 5 Sur 9 Sur 0 -- -- 48
2017-08-17 10:00:00 24.4 2 Oeste 6 Sur 0 -- -- 65
2017-08-17 09:00:00 20.4 2 Sur 6 Sur 0 -- -- 95
2017-08-17 08:00:00 19.2 2 Noroeste 5 Oeste 0 -- -- 95
2017-08-17 07:00:00 18.3 3 Oeste 5 Oeste 0 -- -- 94
2017-08-17 06:00:00 18.6 0 Calma 8 Noroeste 0 -- -- 93
2017-08-17 05:00:00 19.1 4 Oeste 8 Oeste 0 -- -- 93
2017-08-17 04:00:00 19.8 0 Calma 6 Sudoeste 0 -- -- 92
2017-08-17 03:00:00 20.3 2 Sudoeste 5 Sudoeste 0 -- -- 90
2017-08-17 02:00:00 20.9 2 Sur 5 Noroeste 0 -- -- 90
2017-08-17 01:00:00 21.4 2 Norte 4 Noroeste 0 -- -- 90
2017-08-17 00:00:00 22 0 Calma 5 Norte 0 -- -- 88
2017-08-16 23:00:00 22.8 4 Noroeste 8 Noroeste 0 -- -- 86
2017-08-16 22:00:00 24.2 2 Noroeste 5 Noroeste 0 -- -- 82
2017-08-16 21:00:00 25.6 0 Calma 5 Sudeste 0 -- -- 78
2017-08-16 20:00:00 26.1 0 Calma 12 Sudeste 0 -- -- 76
2017-08-16 19:00:00 26.7 5 Este 22 Este 0 -- -- 74
2017-08-16 18:00:00 27 8 Sudeste 22 Este 0.2 -- -- 77
2017-08-16 17:00:00 30.9 13 Sudeste 22 Sudeste 0 -- -- 58
2017-08-16 16:00:00 32 12 Sudeste 22 Sudeste 0 -- -- 52
2017-08-16 15:00:00 31.8 11 Sur 23 Sudeste 0 -- -- 53
2017-08-16 14:00:00 31.1 11 Sudeste 22 Sudeste 0 -- -- 53
2017-08-16 13:00:00 29 5 Oeste 12 Sudeste 0 -- -- 57
2017-08-16 12:00:00 28.4 6 Sur 12 Sur 0 -- -- 60
2017-08-16 11:00:00 27.2 5 Sudeste 10 Sudeste 0 -- -- 64
2017-08-16 10:00:00 24.6 2 Este 6 Nordeste 0 -- -- 71
2017-08-16 09:00:00 21.7 4 Sur 6 Sur 0 -- -- 78
2017-08-16 08:00:00 19.3 0 Calma 3 Oeste 0 -- -- 87
2017-08-16 07:00:00 18.8 0 Calma 6 Noroeste 0 -- -- 86
2017-08-16 06:00:00 19 5 Noroeste 6 Noroeste 0 -- -- 87
2017-08-16 05:00:00 19.1 3 Noroeste 6 Noroeste 0 -- -- 86
2017-08-16 04:00:00 19.2 0 Calma 2 Norte 0 -- -- 85
2017-08-16 03:00:00 19.8 0 Calma 3 Sudeste 0 -- -- 84
2017-08-16 02:00:00 20.3 3 Noroeste 4 Noroeste 0 -- -- 82
2017-08-16 01:00:00 20.9 0 Calma 4 Oeste 0 -- -- 83
2017-08-16 00:00:00 21.6 0 Calma 5 Norte 0 -- -- 80
2017-08-15 23:00:00 22.9 0 Calma 7 Sudoeste 0 -- -- 77
2017-08-15 22:00:00 24 4 Sudoeste 8 Sudoeste 0 -- -- 73
2017-08-15 21:00:00 25 4 Este 15 Nordeste 0 -- -- 71
2017-08-15 20:00:00 25.4 12 Nordeste 25 Nordeste 0 -- -- 70
2017-08-15 19:00:00 26.4 13 Sudeste 30 Sudeste 0 -- -- 67
2017-08-15 18:00:00 28.5 17 Este 30 Este 0 -- -- 61
2017-08-15 17:00:00 30.4 11 Sudeste 26 Este 0 -- -- 53
2017-08-15 16:00:00 30.9 12 Sudeste 27 Este 0 -- -- 52
2017-08-15 15:00:00 30.5 12 Sudeste 27 Sudeste 0 -- -- 50
2017-08-15 14:00:00 29.6 12 Este 30 Sudeste 0 -- -- 51
2017-08-15 13:00:00 29.9 8 Sur 17 Sudeste 0 -- -- 45
2017-08-15 12:00:00 28.2 10 Sudeste 20 Sudeste 0 -- -- 48
2017-08-15 11:00:00 26.1 5 Sudoeste 14 Sudeste 0 -- -- 51
2017-08-15 10:00:00 24 3 Sudeste 6 Sudeste 0 -- -- 56
2017-08-15 09:00:00 19.7 0 Calma 6 Norte 0 -- -- 66
2017-08-15 08:00:00 15.6 4 Oeste 6 Noroeste 0 -- -- 83
2017-08-15 07:00:00 15 4 Sudoeste 6 Sudoeste 0 -- -- 84
2017-08-15 06:00:00 15.6 0 Calma 6 Noroeste 0 -- -- 80
2017-08-15 05:00:00 16.1 5 Noroeste 7 Noroeste 0 -- -- 79
2017-08-15 04:00:00 16.8 0 Calma 6 Noroeste 0 -- -- 77
2017-08-15 03:00:00 17.2 0 Calma 4 Oeste 0 -- -- 79
2017-08-15 02:00:00 18.1 2 Sudeste 6 Noroeste 0 -- -- 77
2017-08-15 01:00:00 19.1 0 Calma 4 Noroeste 0 -- -- 73
2017-08-15 00:00:00 19.9 3 Nordeste 6 Este 0 -- -- 71
2017-08-14 23:00:00 21.1 2 Oeste 7 Oeste 0 -- -- 68
2017-08-14 22:00:00 22.9 3 Noroeste 9 Este 0 -- -- 62
2017-08-14 21:00:00 24.4 4 Sudeste 15 Sur 0 -- -- 59
2017-08-14 20:00:00 26.7 9 Sur 21 Sur 0 -- -- 49
2017-08-14 19:00:00 28.3 13 Sur 25 Sur 0 -- -- 45
2017-08-14 18:00:00 30.1 13 Sur 27 Sur 0 -- -- 39
2017-08-14 17:00:00 30.4 13 Sur 30 Sur 0 -- -- 38
2017-08-14 16:00:00 30.7 18 Sur 32 Sudeste 0 -- -- 40
2017-08-14 15:00:00 31.6 16 Sur 28 Sudoeste 0 -- -- 36
2017-08-14 14:00:00 31.3 15 Sudeste 26 Sur 0 -- -- 37
2017-08-14 13:00:00 29.6 13 Sudeste 25 Sudeste 0 -- -- 39
2017-08-14 12:00:00 28.8 15 Sudeste 25 Sudeste 0 -- -- 41
2017-08-14 11:00:00 25.7 5 Este 12 Sudeste 0 -- -- 55
2017-08-14 10:00:00 22.6 3 Este 6 Este 0 -- -- 62
2017-08-14 09:00:00 19 2 Sudeste 4 Sudeste 0 -- -- 77
2017-08-14 08:00:00 15.2 0 Calma 3 Norte 0 -- -- 94
2017-08-14 07:00:00 14.5 0 Calma 2 Sudoeste 0 -- -- 91
2017-08-14 06:00:00 15 0 Calma 4 Noroeste 0 -- -- 90
2017-08-14 05:00:00 15.5 0 Calma 2 Noroeste 0 -- -- 89
2017-08-14 04:00:00 16.2 0 Calma 3 Noroeste 0 -- -- 88
2017-08-14 03:00:00 17 0 Calma 5 Norte 0 -- -- 88
2017-08-14 02:00:00 17.4 3 Oeste 4 Sudoeste 0 -- -- 86
2017-08-14 01:00:00 18.5 3 Noroeste 7 Noroeste 0 -- -- 83
2017-08-14 00:00:00 19.4 0 Calma 9 Noroeste 0 -- -- 80
2017-08-13 23:00:00 20.5 0 Calma 6 Norte 0 -- -- 76
2017-08-13 22:00:00 21.8 4 Sur 13 Sur 0 -- -- 75
2017-08-13 21:00:00 23.2 9 Sur 19 Sur 0 -- -- 69
2017-08-13 20:00:00 25.7 13 Sur 22 Sur 0 -- -- 59
2017-08-13 19:00:00 27.7 12 Sur 24 Sur 0 -- -- 51
2017-08-13 18:00:00 28.9 15 Sudeste 25 Sur 0 -- -- 49
2017-08-13 17:00:00 29.4 15 Sudeste 27 Sudeste 0 -- -- 47
2017-08-13 16:00:00 30.6 15 Sur 29 Sur 0 -- -- 43
2017-08-13 15:00:00 30.5 14 Sur 27 Sudeste 0 -- -- 41
2017-08-13 14:00:00 30 15 Sur 32 Sudeste 0 -- -- 42
2017-08-13 13:00:00 29.4 12 Sur 23 Sudeste 0 -- -- 41
2017-08-13 12:00:00 27.8 10 Sur 21 Sudeste 0 -- -- 46
2017-08-13 11:00:00 26 7 Sur 14 Sur 0 -- -- 50
2017-08-13 10:00:00 23.4 3 Este 8 Este 0 -- -- 56
2017-08-13 09:00:00 19.3 3 Sudeste 5 Sur 0 -- -- 69
2017-08-13 08:00:00 14.6 0 Calma 3 Sur 0 -- -- 90
2017-08-13 07:00:00 13.8 0 Calma 5 Noroeste 0 -- -- 88
2017-08-13 06:00:00 14.2 0 Calma 4 Sudoeste 0 -- -- 86
2017-08-13 05:00:00 14.7 3 Noroeste 4 Noroeste 0 -- -- 84
2017-08-13 04:00:00 15.3 0 Calma 4 Norte 0 -- -- 82
2017-08-13 03:00:00 15.9 0 Calma 3 Sudeste 0 -- -- 80
2017-08-13 02:00:00 16.6 2 Este 5 Sudeste 0 -- -- 77
2017-08-13 01:00:00 17.4 0 Calma 4 Noroeste 0 -- -- 73
2017-08-13 00:00:00 18.4 3 Oeste 10 Noroeste 0 -- -- 68
2017-08-12 23:00:00 19.5 4 Oeste 6 Oeste 0 -- -- 65
2017-08-12 22:00:00 20.9 3 Oeste 11 Sudoeste 0 -- -- 59
2017-08-12 21:00:00 22.6 5 Sur 22 Sur 0 -- -- 54
2017-08-12 20:00:00 25.1 14 Sur 24 Sudeste 0 -- -- 48
2017-08-12 19:00:00 26.8 14 Sudeste 24 Sur 0 -- -- 47
2017-08-12 18:00:00 27.9 9 Sur 27 Sudeste 0 -- -- 45
2017-08-12 17:00:00 28.5 14 Sur 31 Sur 0 -- -- 43
2017-08-12 16:00:00 28.5 15 Sur 30 Sur 0 -- -- 40
2017-08-12 15:00:00 28.6 17 Sur 33 Sur 0 -- -- 41
2017-08-12 14:00:00 28.4 14 Sur 30 Sur 0 -- -- 39
2017-08-12 13:00:00 28.3 13 Sur 25 Sur 0 -- -- 35
2017-08-12 12:00:00 25.9 9 Este 18 Este 0 -- -- 37
2017-08-12 11:00:00 24.4 5 Sudeste 12 Este 0 -- -- 43
2017-08-12 10:00:00 21 4 Nordeste 6 Nordeste 0 -- -- 50
2017-08-12 09:00:00 16.8 3 Sur 6 Oeste 0 -- -- 63
2017-08-12 08:00:00 12.5 0 Calma 6 Noroeste 0 -- -- 86
2017-08-12 07:00:00 10.9 0 Calma 5 Norte 0 -- -- 88
2017-08-12 06:00:00 11.2 3 Sudoeste 5 Sudoeste 0 -- -- 88
2017-08-12 05:00:00 11.7 0 Calma 8 Noroeste 0 -- -- 85
2017-08-12 04:00:00 12.2 0 Calma 5 Oeste 0 -- -- 86
2017-08-12 03:00:00 13 0 Calma 4 Este 0 -- -- 84
2017-08-12 02:00:00 13.9 3 Noroeste 6 Noroeste 0 -- -- 81
2017-08-12 01:00:00 14.7 3 Oeste 5 Oeste 0 -- -- 78
2017-08-12 00:00:00 15.8 3 Oeste 6 Oeste 0 -- -- 77
2017-08-11 23:00:00 17.3 3 Oeste 9 Noroeste 0 -- -- 70
2017-08-11 22:00:00 19.1 2 Noroeste 8 Sur 0 -- -- 67
2017-08-11 21:00:00 21 4 Sudeste 11 Sur 0 -- -- 60
2017-08-11 20:00:00 23.5 5 Sur 17 Sur 0 -- -- 50
2017-08-11 19:00:00 23.7 13 Sur 21 Sudoeste 0 -- -- 49
2017-08-11 18:00:00 25.1 13 Sur 28 Sur 0 -- -- 43
2017-08-11 17:00:00 27.6 18 Sur 37 Sudeste 0 -- -- 37
2017-08-11 16:00:00 29.4 14 Sur 31 Sur 0 -- -- 32
2017-08-11 15:00:00 28 12 Sudeste 22 Sudeste 0 -- -- 28
2017-08-11 14:00:00 26.3 6 Este 20 Este 0 -- -- 27
2017-08-11 13:00:00 25.8 6 Sudoeste 15 Sudeste 0 -- -- 20
2017-08-11 12:00:00 23.8 9 Sur 14 Sudoeste 0 -- -- 25
2017-08-11 11:00:00 20.3 2 Este 14 Noroeste 0 -- -- 30
2017-08-11 10:00:00 17.4 3 Sudoeste 8 Sur 0 -- -- 57
2017-08-11 09:00:00 14.6 2 Sudoeste 7 Este 0 -- -- 75
2017-08-11 08:00:00 11.4 5 Sudoeste 12 Sudeste 0 -- -- 87
2017-08-11 07:00:00 11 5 Sudoeste 11 Sudoeste 0 -- -- 87
2017-08-11 06:00:00 11.7 4 Sudeste 12 Oeste 0 -- -- 84
2017-08-11 05:00:00 12.5 3 Sudoeste 8 Sudoeste 0 -- -- 79
2017-08-11 04:00:00 14.7 2 Sudoeste 18 Noroeste 0 -- -- 69
2017-08-11 03:00:00 17.1 7 Norte 31 Noroeste 0 -- -- 57
2017-08-11 02:00:00 17.7 16 Noroeste 32 Noroeste 0 -- -- 56
2017-08-11 01:00:00 18.1 7 Noroeste 18 Norte 0 -- -- 55
2017-08-11 00:00:00 19.1 11 Norte 23 Norte 0 -- -- 52
2017-08-10 23:00:00 18.5 11 Norte 20 Noroeste 0 -- -- 56
2017-08-10 22:00:00 18.9 5 Nordeste 14 Norte 0 -- -- 69
2017-08-10 21:00:00 21.1 5 Sur 14 Sur 0 -- -- 61
2017-08-10 20:00:00 23.3 12 Sur 18 Sur 0 -- -- 52
2017-08-10 19:00:00 24.2 12 Sur 22 Sur 0 -- -- 47
2017-08-10 18:00:00 25.8 14 Sur 27 Sur 0 -- -- 43
2017-08-10 17:00:00 26.3 13 Sudeste 36 Este 0 -- -- 41
2017-08-10 16:00:00 26.7 16 Nordeste 35 Norte 0 -- -- 32
2017-08-10 15:00:00 26.1 12 Nordeste 35 Nordeste 0 -- -- 31
2017-08-10 14:00:00 25.2 20 Norte 35 Norte 0 -- -- 35
2017-08-10 13:00:00 24.1 17 Nordeste 30 Nordeste 0 -- -- 38
2017-08-10 12:00:00 22.8 14 Norte 33 Noroeste 0 -- -- 42
2017-08-10 11:00:00 21.2 18 Noroeste 45 Norte 0 -- -- 47
2017-08-10 10:00:00 19.6 13 Norte 35 Noroeste 0 -- -- 52
2017-08-10 09:00:00 18.1 5 Este 21 Este 0 -- -- 53
2017-08-10 08:00:00 15.4 8 Sudeste 26 Oeste 0 -- -- 59
2017-08-10 07:00:00 15.1 4 Norte 28 Noroeste 0 -- -- 62
2017-08-10 06:00:00 15 8 Norte 27 Nordeste 0 -- -- 62
2017-08-10 05:00:00 13.5 6 Noroeste 22 Norte 1.6 -- -- 69
2017-08-10 04:00:00 13.4 6 Sur 33 Noroeste 2.6 -- -- 80
2017-08-10 03:00:00 14.8 5 Norte 33 Noroeste 0.4 -- -- 68
2017-08-10 02:00:00 17.2 13 Norte 43 Noroeste 0 -- -- 52
2017-08-10 01:00:00 17.3 17 Norte 42 Norte 0 -- -- 53
2017-08-10 00:00:00 16 12 Norte 31 Noroeste 1 -- -- 64
2017-08-09 23:00:00 15.8 8 Norte 33 Noroeste 0.4 -- -- 70
2017-08-09 22:00:00 16.5 10 Norte 31 Norte 0.2 -- -- 71
2017-08-09 21:00:00 16.5 12 Norte 24 Noroeste 1.8 -- -- 76
2017-08-09 20:00:00 16.5 4 Nordeste 31 Norte 1 -- -- 83
2017-08-09 19:00:00 17.7 16 Norte 47 Norte 0.4 -- -- 75
2017-08-09 18:00:00 18.8 17 Norte 30 Norte 0.8 -- -- 67
2017-08-09 17:00:00 19.2 14 Norte 27 Este 1 -- -- 78
2017-08-09 16:00:00 24.7 16 Sudeste 32 Este 0 -- -- 60
2017-08-09 15:00:00 26 14 Sudeste 30 Sudeste 0 -- -- 56
2017-08-09 14:00:00 26 14 Sudeste 24 Este 0 -- -- 56
2017-08-09 13:00:00 25.3 12 Sudeste 29 Sudeste 0 -- -- 56
2017-08-09 12:00:00 25.1 14 Sudeste 24 Sudeste 0 -- -- 57
2017-08-09 11:00:00 24.6 8 Este 23 Sudeste 0 -- -- 57
2017-08-09 10:00:00 23.5 4 Este 9 Este 0 -- -- 57
2017-08-09 09:00:00 20.3 2 Nordeste 3 Nordeste 0 -- -- 46
2017-08-09 08:00:00 18.6 2 Sudeste 4 Este 0 -- -- 54
2017-08-09 07:00:00 17.5 0 Calma 4 Oeste 0 -- -- 56
2017-08-09 06:00:00 16.9 3 Oeste 5 Noroeste 0 -- -- 55
2017-08-09 05:00:00 16.9 2 Sudoeste 4 Norte 0 -- -- 55
2017-08-09 04:00:00 16.7 0 Calma 5 Oeste 0 -- -- 55
2017-08-09 03:00:00 17.6 0 Calma 6 Oeste 0 -- -- 50
2017-08-09 02:00:00 18.5 0 Calma 13 Sudeste 0 -- -- 47
2017-08-09 01:00:00 19.5 9 Noroeste 12 Noroeste 0 -- -- 45
2017-08-09 00:00:00 21.3 7 Noroeste 15 Norte 0 -- -- 40
2017-08-08 23:00:00 22.8 9 Norte 18 Nordeste 0 -- -- 36
2017-08-08 22:00:00 24.2 5 Este 27 Nordeste 0 -- -- 34
2017-08-08 21:00:00 25.7 13 Norte 38 Norte 0 -- -- 33
2017-08-08 20:00:00 27.8 16 Norte 32 Norte 0 -- -- 31
2017-08-08 19:00:00 29.7 12 Norte 30 Norte 0 -- -- 29
2017-08-08 18:00:00 30.6 13 Norte 30 Nordeste 0 -- -- 28
2017-08-08 17:00:00 31.1 16 Nordeste 37 Nordeste 0 -- -- 28
2017-08-08 16:00:00 32.8 14 Sudeste 42 Este 0 -- -- 30
2017-08-08 15:00:00 31.6 12 Norte 28 Nordeste 0 -- -- 33
2017-08-08 14:00:00 30.5 18 Norte 32 Norte 0 -- -- 34
2017-08-08 13:00:00 29.8 12 Norte 25 Nordeste 0 -- -- 37
2017-08-08 12:00:00 28.6 15 Nordeste 26 Nordeste 0 -- -- 40
2017-08-08 11:00:00 28 10 Norte 21 Nordeste 0 -- -- 44
2017-08-08 10:00:00 26.2 12 Norte 21 Norte 0 -- -- 47
2017-08-08 09:00:00 22.7 4 Sudoeste 10 Sudoeste 0 -- -- 72
2017-08-08 08:00:00 19.7 0 Calma 9 Sudeste 0 -- -- 94
2017-08-08 07:00:00 19.2 2 Norte 10 Sudoeste 0 -- -- 93
2017-08-08 06:00:00 19.8 0 Calma 4 Sudoeste 0 -- -- 91
2017-08-08 05:00:00 20.5 0 Calma 6 Oeste 0 -- -- 90
2017-08-08 04:00:00 21.5 0 Calma 6 Sudeste 0 -- -- 88
2017-08-08 03:00:00 21.9 0 Calma 10 Noroeste 0 -- -- 89
2017-08-08 02:00:00 22 5 Oeste 12 Noroeste 0 -- -- 89
2017-08-08 01:00:00 22.8 3 Noroeste 9 Noroeste 0 -- -- 86
2017-08-08 00:00:00 23.6 6 Noroeste 8 Noroeste 0 -- -- 83
2017-08-07 23:00:00 24.6 5 Noroeste 10 Noroeste 0 -- -- 80
2017-08-07 22:00:00 25.5 6 Sudeste 19 Sur 0 -- -- 79
2017-08-07 21:00:00 26.4 10 Sur 19 Sudoeste 0 -- -- 75
2017-08-07 20:00:00 27.8 13 Sudoeste 23 Sur 0 -- -- 69
2017-08-07 19:00:00 29.1 14 Sur 24 Sudoeste 0 -- -- 62
2017-08-07 18:00:00 29.7 15 Sur 29 Sur 0 -- -- 61
2017-08-07 17:00:00 31 18 Sur 33 Sur 0 -- -- 57
2017-08-07 16:00:00 32 21 Sur 37 Sudeste 0 -- -- 55
2017-08-07 15:00:00 32.5 21 Sur 38 Sur 0 -- -- 52
2017-08-07 14:00:00 30.8 22 Sudeste 33 Sudeste 0 -- -- 55
2017-08-07 13:00:00 30.7 19 Sudeste 32 Sur 0 -- -- 56
2017-08-07 12:00:00 30.5 15 Sur 28 Sudeste 0 -- -- 54
2017-08-07 11:00:00 28.9 18 Sudeste 28 Sur 0 -- -- 61
2017-08-07 10:00:00 25.9 4 Sudeste 10 Sur 0 -- -- 73
2017-08-07 09:00:00 22.2 2 Este 5 Sudeste 0 -- -- 84
2017-08-07 08:00:00 19.9 3 Sudoeste 5 Sudoeste 0 -- -- 91
2017-08-07 07:00:00 19.5 0 Calma 4 Nordeste 0 -- -- 91
2017-08-07 06:00:00 19.5 0 Calma 6 Noroeste 0 -- -- 89
2017-08-07 05:00:00 19.7 3 Sudoeste 5 Sudoeste 0 -- -- 89
2017-08-07 04:00:00 20.5 2 Norte 4 Oeste 0 -- -- 89
2017-08-07 03:00:00 21.1 2 Sudoeste 4 Oeste 0 -- -- 87
2017-08-07 02:00:00 21.7 0 Calma 5 Noroeste 0 -- -- 88
2017-08-07 01:00:00 22.4 0 Calma 5 Oeste 0 -- -- 85
2017-08-07 00:00:00 22.5 3 Oeste 6 Sudeste 0 -- -- 84
2017-08-06 23:00:00 23.6 3 Sudeste 12 Sudoeste 0 -- -- 82
2017-08-06 22:00:00 24 3 Sur 15 Sudeste 0 -- -- 80
2017-08-06 21:00:00 25.1 12 Sudeste 17 Sudeste 0 -- -- 75
2017-08-06 20:00:00 26.4 9 Este 21 Este 0 -- -- 68
2017-08-06 19:00:00 27.3 9 Sudeste 22 Sudeste 0 -- -- 63
2017-08-06 18:00:00 27.5 11 Sudeste 24 Sudeste 0 -- -- 62
2017-08-06 17:00:00 27.6 12 Sudeste 23 Este 0 -- -- 63
2017-08-06 16:00:00 28.1 13 Sudeste 25 Sudeste 0 -- -- 60
2017-08-06 15:00:00 28.4 16 Sudeste 27 Sudeste 0 -- -- 60
2017-08-06 14:00:00 27.9 12 Sudeste 29 Sudeste 0 -- -- 64
2017-08-06 13:00:00 29.3 16 Sudeste 25 Sudeste 0 -- -- 53
2017-08-06 12:00:00 28.4 6 Este 14 Este 0 -- -- 56
2017-08-06 11:00:00 26.4 8 Nordeste 19 Nordeste 0 -- -- 59
2017-08-06 10:00:00 25.4 10 Nordeste 17 Nordeste 0 -- -- 62
2017-08-06 09:00:00 21.8 2 Sudeste 6 Sur 0 -- -- 75
2017-08-06 08:00:00 18.6 0 Calma 4 Oeste 0 -- -- 91
2017-08-06 07:00:00 18.1 0 Calma 3 Oeste 0 -- -- 89
2017-08-06 06:00:00 18.4 0 Calma 4 Noroeste 0 -- -- 87
2017-08-06 05:00:00 18.9 0 Calma 3 Noroeste 0 -- -- 86
2017-08-06 04:00:00 19.5 0 Calma 6 Sur 0 -- -- 87
2017-08-06 03:00:00 20.3 5 Oeste 9 Oeste 0 -- -- 85
2017-08-06 02:00:00 21.2 3 Este 9 Norte 0 -- -- 83
2017-08-06 01:00:00 22 3 Oeste 5 Sudoeste 0 -- -- 84
2017-08-06 00:00:00 22.8 3 Sudoeste 10 Sudeste 0 -- -- 81
2017-08-05 23:00:00 24.1 8 Este 28 Noroeste 0 -- -- 72
2017-08-05 22:00:00 24.5 9 Oeste 23 Noroeste 0.8 -- -- 78
2017-08-05 21:00:00 28.6 6 Oeste 11 Oeste 0 -- -- 58
2017-08-05 20:00:00 29.6 0 Calma 16 Este 0 -- -- 49
2017-08-05 19:00:00 30 7 Sudeste 19 Este 0 -- -- 48
2017-08-05 18:00:00 32.1 10 Sudeste 25 Sudeste 0 -- -- 45
2017-08-05 17:00:00 35.5 15 Sudeste 29 Sudoeste 0 -- -- 36
2017-08-05 16:00:00 36.8 17 Sur 30 Sudeste 0 -- -- 33
2017-08-05 15:00:00 36.8 20 Sur 29 Sudeste 0 -- -- 31
2017-08-05 14:00:00 37.3 17 Sudeste 29 Sur 0 -- -- 30
2017-08-05 13:00:00 36.2 14 Sur 26 Sur 0 -- -- 30
2017-08-05 12:00:00 33.9 12 Sudeste 23 Sudeste 0 -- -- 34
2017-08-05 11:00:00 31.3 5 Este 14 Este 0 -- -- 41
2017-08-05 10:00:00 28.9 2 Nordeste 5 Este 0 -- -- 50
2017-08-05 09:00:00 25.2 0 Calma 4 Norte 0 -- -- 64
2017-08-05 08:00:00 20.4 0 Calma 4 Noroeste 0 -- -- 76
2017-08-05 07:00:00 20.1 0 Calma 5 Noroeste 0 -- -- 74
2017-08-05 06:00:00 20.8 2 Oeste 5 Sudoeste 0 -- -- 72
2017-08-05 05:00:00 21.7 2 Norte 3 Norte 0 -- -- 70
2017-08-05 04:00:00 22.6 0 Calma 3 Sudoeste 0 -- -- 66
2017-08-05 03:00:00 23.4 0 Calma 3 Noroeste 0 -- -- 66
2017-08-05 02:00:00 24.4 0 Calma 4 Sur 0 -- -- 65
2017-08-05 01:00:00 25.2 0 Calma 3 Nordeste 0 -- -- 63
2017-08-05 00:00:00 26.4 3 Sudoeste 5 Noroeste 0 -- -- 60
2017-08-04 23:00:00 27.7 3 Oeste 10 Noroeste 0 -- -- 57
2017-08-04 22:00:00 29.7 0 Calma 5 Noroeste 0 -- -- 55
2017-08-04 21:00:00 31.5 0 Calma 19 Este 0 -- -- 49
2017-08-04 20:00:00 33.3 12 Sudeste 23 Sudeste 0 -- -- 43
2017-08-04 19:00:00 35.2 14 Sudeste 21 Sudeste 0 -- -- 38
2017-08-04 18:00:00 36.5 10 Sudeste 25 Sudeste 0 -- -- 36
2017-08-04 17:00:00 37.3 14 Sudeste 35 Sudeste 0 -- -- 35
2017-08-04 16:00:00 36.7 17 Sudeste 31 Sudeste 0 -- -- 35
2017-08-04 15:00:00 37.4 17 Sudeste 32 Sudeste 0 -- -- 34
2017-08-04 14:00:00 36.7 12 Este 23 Este 0 -- -- 30
2017-08-04 13:00:00 36 8 Este 22 Sudeste 0 -- -- 31
2017-08-04 12:00:00 34.7 11 Sudeste 22 Sudeste 0 -- -- 34
2017-08-04 11:00:00 32.6 5 Sudeste 11 Este 0 -- -- 37
2017-08-04 10:00:00 29.3 0 Calma 8 Sur 0 -- -- 41
2017-08-04 09:00:00 25.3 0 Calma 6 Sudeste 0 -- -- 51
2017-08-04 08:00:00 20.8 0 Calma 5 Norte 0 -- -- 66
2017-08-04 07:00:00 19.4 3 Sur 5 Sur 0 -- -- 66
2017-08-04 06:00:00 19.8 2 Sudeste 4 Este 0 -- -- 66
2017-08-04 05:00:00 20.2 2 Oeste 6 Norte 0 -- -- 65
2017-08-04 04:00:00 20.8 4 Noroeste 6 Norte 0 -- -- 64
2017-08-04 03:00:00 21.7 0 Calma 4 Noroeste 0 -- -- 61
2017-08-04 02:00:00 22.6 3 Oeste 6 Noroeste 0 -- -- 59
2017-08-04 01:00:00 23.6 0 Calma 4 Sudoeste 0 -- -- 56
2017-08-04 00:00:00 25.2 0 Calma 9 Noroeste 0 -- -- 51
2017-08-03 23:00:00 26.6 3 Norte 8 Noroeste 0 -- -- 47
2017-08-03 22:00:00 28.8 5 Noroeste 8 Sudoeste 0 -- -- 43
2017-08-03 21:00:00 31.2 5 Sur 17 Sudeste 0 -- -- 37
2017-08-03 20:00:00 33.2 8 Sudeste 20 Sudeste 0 -- -- 35
2017-08-03 19:00:00 34.5 12 Sudeste 26 Este 0 -- -- 33
2017-08-03 18:00:00 35.4 16 Este 29 Sudeste 0 -- -- 34
2017-08-03 17:00:00 36.2 14 Este 33 Sudeste 0 -- -- 33
2017-08-03 16:00:00 36.4 14 Sudeste 33 Sudeste 0 -- -- 32
2017-08-03 15:00:00 36.8 20 Sudeste 36 Sudeste 0 -- -- 31
2017-08-03 14:00:00 37 11 Este 27 Sudeste 0 -- -- 28
2017-08-03 13:00:00 36.3 9 Sudeste 18 Sudeste 0 -- -- 30
2017-08-03 12:00:00 35.2 9 Sudeste 24 Sudeste 0 -- -- 32
2017-08-03 11:00:00 32.9 4 Sudeste 9 Sur 0 -- -- 36
2017-08-03 10:00:00 28.3 2 Sur 5 Sur 0 -- -- 45
2017-08-03 09:00:00 23.8 0 Calma 4 Oeste 0 -- -- 56
2017-08-03 08:00:00 19 0 Calma 5 Oeste 0 -- -- 77
2017-08-03 07:00:00 17.4 0 Calma 6 Sudeste 0 -- -- 78
2017-08-03 06:00:00 17.6 0 Calma 4 Sudoeste 0 -- -- 78
2017-08-03 05:00:00 18.2 0 Calma 6 Noroeste 0 -- -- 76
2017-08-03 04:00:00 18.9 2 Noroeste 5 Noroeste 0 -- -- 74
2017-08-03 03:00:00 19 0 Calma 3 Oeste 0 -- -- 74
2017-08-03 02:00:00 20.1 0 Calma 4 Noroeste 0 -- -- 70
2017-08-03 01:00:00 21 0 Calma 4 Noroeste 0 -- -- 74
2017-08-03 00:00:00 22.3 2 Oeste 8 Noroeste 0 -- -- 71
2017-08-02 23:00:00 23.9 0 Calma 8 Sudeste 0 -- -- 66
2017-08-02 22:00:00 25.3 5 Sudoeste 15 Noroeste 0 -- -- 60
2017-08-02 21:00:00 28 0 Calma 6 Noroeste 0 -- -- 54
2017-08-02 20:00:00 30.1 5 Sudoeste 18 Sur 0 -- -- 45
2017-08-02 19:00:00 28.4 8 Sudoeste 26 Sudeste 0 -- -- 57
2017-08-02 18:00:00 29.6 14 Sudeste 24 Sudeste 0 -- -- 57
2017-08-02 17:00:00 27.6 8 Norte 21 Norte 0 -- -- 64
2017-08-02 16:00:00 27 5 Este 17 Sudeste 0 -- -- 69
2017-08-02 15:00:00 27.7 5 Sur 15 Sudeste 0.2 -- -- 75
2017-08-02 14:00:00 28 8 Sudeste 28 Sudeste 0 -- -- 73
2017-08-02 13:00:00 30.1 10 Sudeste 26 Sudeste 0 -- -- 59
2017-08-02 12:00:00 31.1 13 Sudeste 20 Sudeste 0 -- -- 53
2017-08-02 11:00:00 29.7 5 Oeste 11 Sur 0 -- -- 52
2017-08-02 10:00:00 24.5 4 Sur 9 Noroeste 0 -- -- 68
2017-08-02 09:00:00 20.8 6 Nordeste 10 Oeste 0 -- -- 82
2017-08-02 08:00:00 19.6 6 Sudoeste 9 Noroeste 0 -- -- 87
2017-08-02 07:00:00 18.6 3 Norte 9 Noroeste 0 -- -- 89
2017-08-02 06:00:00 18.6 4 Sudoeste 8 Sudoeste 0 -- -- 90
2017-08-02 05:00:00 19.1 5 Noroeste 7 Noroeste 0 -- -- 87
2017-08-02 04:00:00 19.5 3 Oeste 6 Oeste 0 -- -- 89
2017-08-02 03:00:00 20.1 4 Norte 10 Noroeste 0 -- -- 87
2017-08-02 02:00:00 20.7 5 Sudoeste 7 Sur 0.2 -- -- 90
2017-08-02 01:00:00 21.8 4 Oeste 10 Noroeste 0 -- -- 89
2017-08-02 00:00:00 23 3 Nordeste 12 Noroeste 0 -- -- 88
2017-08-01 23:00:00 23.8 4 Sudoeste 10 Sur 0 -- -- 87
2017-08-01 22:00:00 24.8 4 Oeste 8 Este 0 -- -- 84
2017-08-01 21:00:00 25.5 8 Sudeste 14 Sudeste 0 -- -- 83
2017-08-01 20:00:00 26.5 12 Sudeste 22 Sur 0 -- -- 78
2017-08-01 19:00:00 26.8 12 Sudeste 22 Sudeste 0 -- -- 78
2017-08-01 18:00:00 27 9 Sudeste 21 Sudeste 0 -- -- 78
2017-08-01 17:00:00 26 7 Este 20 Sudoeste 0 -- -- 83
2017-08-01 16:00:00 27.1 13 Sur 24 Sudeste 0 -- -- 74
2017-08-01 15:00:00 28 8 Sudeste 17 Sudeste 0.2 -- -- 72
2017-08-01 14:00:00 28.3 5 Sur 26 Sudeste 0 -- -- 66
2017-08-01 13:00:00 29 8 Este 19 Sudeste 0 -- -- 61
2017-08-01 12:00:00 28.4 6 Este 15 Sur 0 -- -- 59
2017-08-01 11:00:00 25.8 4 Este 17 Norte 0 -- -- 70
2017-08-01 10:00:00 24.1 3 Noroeste 10 Noroeste 0 -- -- 82
2017-08-01 09:00:00 23.2 5 Sur 8 Sur 0 -- -- 80
2017-08-01 08:00:00 21.9 4 Noroeste 6 Noroeste 0 -- -- 85
2017-08-01 07:00:00 21.3 2 Sur 10 Noroeste 0 -- -- 84
2017-08-01 06:00:00 21.6 3 Oeste 8 Noroeste 0 -- -- 87
2017-08-01 05:00:00 21.4 5 Norte 11 Sudoeste 0 -- -- 86
2017-08-01 04:00:00 21.9 5 Sudoeste 10 Sudoeste 0 -- -- 84
2017-08-01 03:00:00 23.4 5 Este 13 Noroeste 0 -- -- 83
2017-08-01 02:00:00 24.2 4 Sudoeste 8 Sudoeste 0 -- -- 85
2017-08-01 01:00:00 24.3 3 Sur 6 Sudoeste 0 -- -- 85
2017-08-01 00:00:00 24.3 0 Calma 4 Oeste 0 -- -- 83
2017-07-31 23:00:00 24.6 0 Calma 4 Nordeste 0 -- -- 78
2017-07-31 22:00:00 25.7 0 Calma 10 Sur 0 -- -- 74
2017-07-31 21:00:00 27.2 7 Sudeste 17 Sudeste 0 -- -- 67
2017-07-31 20:00:00 29.4 9 Sudeste 21 Este 0 -- -- 59
2017-07-31 19:00:00 31 11 Sudeste 25 Sudeste 0 -- -- 53
2017-07-31 18:00:00 32.4 16 Sudeste 26 Sudeste 0 -- -- 48
2017-07-31 17:00:00 32.5 10 Este 26 Este 0 -- -- 50
2017-07-31 16:00:00 32.1 17 Sudeste 32 Sudeste 0 -- -- 55
2017-07-31 15:00:00 32.9 14 Sudeste 29 Sudeste 0 -- -- 53
2017-07-31 14:00:00 32.6 13 Sudeste 28 Sudeste 0 -- -- 53
2017-07-31 13:00:00 31.8 10 Sudeste 22 Sudeste 0 -- -- 48
2017-07-31 12:00:00 31 9 Sur 18 Sudeste 0 -- -- 52
2017-07-31 11:00:00 27.8 4 Nordeste 12 Noroeste 0 -- -- 61
2017-07-31 10:00:00 25.8 3 Noroeste 7 Oeste 0 -- -- 67
2017-07-31 09:00:00 23.4 3 Sudoeste 6 Sudoeste 0 -- -- 76
2017-07-31 08:00:00 20.6 3 Este 5 Este 0 -- -- 88
2017-07-31 07:00:00 19.8 0 Calma 4 Nordeste 0 -- -- 89
2017-07-31 06:00:00 20.9 0 Calma 5 Noroeste 0 -- -- 87
2017-07-31 05:00:00 21.6 0 Calma 8 Noroeste 0 -- -- 88
2017-07-31 04:00:00 22.5 0 Calma 4 Oeste 0 -- -- 87
2017-07-31 03:00:00 23.8 2 Norte 4 Norte 0 -- -- 89
2017-07-31 02:00:00 23.9 2 Este 6 Sudeste 0 -- -- 89
2017-07-31 01:00:00 23.9 4 Sudeste 6 Sur 0 -- -- 88
2017-07-31 00:00:00 23.8 3 Sudoeste 6 Sudoeste 0 -- -- 85
2017-07-30 23:00:00 24.7 2 Sur 4 Sudoeste 0 -- -- 82
2017-07-30 22:00:00 25.7 2 Sudeste 8 Sudeste 0 -- -- 78
2017-07-30 21:00:00 27 6 Sur 19 Este 0 -- -- 73
2017-07-30 20:00:00 29.1 12 Sudeste 23 Sudeste 0 -- -- 67
2017-07-30 19:00:00 30.6 16 Sudeste 28 Sudeste 0 -- -- 62
2017-07-30 18:00:00 33.4 15 Sudeste 26 Sudeste 0 -- -- 53
2017-07-30 17:00:00 33.8 12 Sudeste 25 Sudeste 0 -- -- 53
2017-07-30 16:00:00 34.4 18 Sudeste 29 Sudeste 0 -- -- 52
2017-07-30 15:00:00 34.4 15 Sudeste 29 Sudeste 0 -- -- 50
2017-07-30 14:00:00 34 13 Sudeste 22 Sudeste 0 -- -- 49
2017-07-30 13:00:00 33.2 11 Sudeste 20 Sudeste 0 -- -- 46
2017-07-30 12:00:00 31.8 7 Sudeste 19 Sudeste 0 -- -- 46
2017-07-30 11:00:00 29.2 5 Este 13 Sudeste 0 -- -- 52
2017-07-30 10:00:00 27.2 4 Este 8 Este 0 -- -- 57
2017-07-30 09:00:00 23.5 2 Sudeste 6 Sudeste 0 -- -- 73
2017-07-30 08:00:00 19.5 0 Calma 4 Oeste 0 -- -- 86
2017-07-30 07:00:00 17.9 0 Calma 2 Noroeste 0 -- -- 87
2017-07-30 06:00:00 18.5 0 Calma 3 Noroeste 0 -- -- 87
2017-07-30 05:00:00 19.2 3 Noroeste -- -- 0 -- -- 85
2017-07-30 04:00:00 19.9 2 Sudoeste 5 Noroeste 0 -- -- 81
2017-07-30 03:00:00 20.8 3 Noroeste 4 Noroeste 0 -- -- 80
2017-07-30 02:00:00 21.5 0 Calma 5 Oeste 0 -- -- 76
2017-07-30 01:00:00 22.6 5 Noroeste 7 Noroeste 0 -- -- 74
2017-07-30 00:00:00 23.5 3 Nordeste 7 Sudoeste 0 -- -- 73
2017-07-29 23:00:00 24.7 4 Sudoeste 8 Sudoeste 0 -- -- 69
2017-07-29 22:00:00 26.4 3 Noroeste 8 Sur 0 -- -- 65
2017-07-29 21:00:00 27.8 5 Sudeste 15 Este 0 -- -- 61
2017-07-29 20:00:00 29 10 Sudeste 24 Sudeste 0 -- -- 58
2017-07-29 19:00:00 30.4 13 Este 29 Sudeste 0 -- -- 54
2017-07-29 18:00:00 32 14 Sudeste 28 Sudeste 0 -- -- 49
2017-07-29 17:00:00 33.7 15 Sur 33 Sur 0 -- -- 47
2017-07-29 16:00:00 33.5 17 Sudeste 32 Sudeste 0 -- -- 49
2017-07-29 15:00:00 33.1 18 Sudeste 32 Sudeste 0 -- -- 50
2017-07-29 14:00:00 33.8 13 Sur 27 Sur 0 -- -- 47
2017-07-29 13:00:00 32.4 12 Sur 20 Sur 0 -- -- 49
2017-07-29 12:00:00 29.7 8 Sudeste 18 Este 0 -- -- 58
2017-07-29 11:00:00 27.6 6 Este 15 Este 0 -- -- 67
2017-07-29 10:00:00 25.4 9 Sudeste 14 Sur 0 -- -- 76
2017-07-29 09:00:00 23.5 6 Este 8 Sudeste 0 -- -- 84
2017-07-29 08:00:00 22.8 0 Calma 3 Este 0 -- -- 86
2017-07-29 07:00:00 22.7 0 Calma 5 Sudeste 0 -- -- 86
2017-07-29 06:00:00 22.6 2 Sudeste 5 Este 0 -- -- 84
2017-07-29 05:00:00 22.6 2 Norte 4 Norte 0 -- -- 85
2017-07-29 04:00:00 22 0 Calma 4 Sudoeste 0 -- -- 87
2017-07-29 03:00:00 21.4 2 Norte 5 Noroeste 0 -- -- 87
2017-07-29 02:00:00 21.8 0 Calma 5 Noroeste 0 -- -- 84
2017-07-29 01:00:00 22.6 5 Noroeste 8 Noroeste 0 -- -- 83
2017-07-29 00:00:00 23.6 2 Noroeste 7 Noroeste 0 -- -- 80
2017-07-28 23:00:00 24.5 0 Calma 5 Este 0 -- -- 78
2017-07-28 22:00:00 25.3 3 Sudeste 12 Sudeste 0 -- -- 78
2017-07-28 21:00:00 26.3 6 Sudeste 17 Sudeste 0 -- -- 74
2017-07-28 20:00:00 27.6 11 Sudeste 20 Sudeste 0 -- -- 70
2017-07-28 19:00:00 29.5 15 Sudeste 21 Este 0 -- -- 64
2017-07-28 18:00:00 30.2 13 Sudeste 26 Sudeste 0 -- -- 62
2017-07-28 17:00:00 30.3 12 Sudeste 28 Este 0 -- -- 60
2017-07-28 16:00:00 30.8 17 Este 32 Sudeste 0 -- -- 60
2017-07-28 15:00:00 32.6 18 Sudeste 30 Sudeste 0 -- -- 55
2017-07-28 14:00:00 32.7 17 Sudeste 33 Sudeste 0 -- -- 52
2017-07-28 13:00:00 32.4 13 Sudeste 21 Este 0 -- -- 48
2017-07-28 12:00:00 30.1 7 Nordeste 15 Este 0 -- -- 53
2017-07-28 11:00:00 28.3 5 Norte 12 Este 0 -- -- 59
2017-07-28 10:00:00 26.9 5 Este 10 Este 0 -- -- 64
2017-07-28 09:00:00 24.3 2 Sur 6 Sur 0 -- -- 68
2017-07-28 08:00:00 19.9 2 Sur 8 Sudoeste 0 -- -- 78
2017-07-28 07:00:00 17.8 2 Sudoeste 9 Oeste 0 -- -- 81
2017-07-28 06:00:00 18.2 3 Noroeste 9 Noroeste 0 -- -- 79
2017-07-28 05:00:00 18.8 0 Calma 4 Este 0 -- -- 79
2017-07-28 04:00:00 19.9 2 Noroeste 5 Oeste 0 -- -- 76
2017-07-28 03:00:00 20.8 0 Calma 4 Oeste 0 -- -- 73
2017-07-28 02:00:00 22 3 Noroeste 8 Oeste 0 -- -- 76
2017-07-28 01:00:00 23.2 2 Sudoeste 6 Noroeste 0 -- -- 71
2017-07-28 00:00:00 24.8 3 Oeste 8 Oeste 0 -- -- 67
2017-07-27 23:00:00 26.2 3 Noroeste 8 Noroeste 0 -- -- 64
2017-07-27 22:00:00 27.4 4 Oeste 11 Sur 0 -- -- 61
2017-07-27 21:00:00 28.7 8 Sudeste 13 Sudeste 0 -- -- 59
2017-07-27 20:00:00 30.4 9 Sudeste 22 Este 0 -- -- 54
2017-07-27 19:00:00 31.4 13 Sudeste 26 Este 0 -- -- 52
2017-07-27 18:00:00 32.8 15 Sudeste 27 Sudeste 0 -- -- 48
2017-07-27 17:00:00 34.8 14 Sudeste 27 Sudeste 0 -- -- 41
2017-07-27 16:00:00 35.4 12 Sur 27 Sudeste 0 -- -- 39
2017-07-27 15:00:00 35.6 15 Sudeste 26 Sudeste 0 -- -- 37
2017-07-27 14:00:00 35.3 14 Sur 26 Sur 0 -- -- 36
2017-07-27 13:00:00 34.2 17 Sur 28 Sudeste 0 -- -- 38
2017-07-27 12:00:00 33.5 13 Sur 25 Sudeste 0 -- -- 39
2017-07-27 11:00:00 31.8 15 Sudeste 24 Sudeste 0 -- -- 38
2017-07-27 10:00:00 28 3 Sudoeste 6 Sudoeste 0 -- -- 45
2017-07-27 09:00:00 24.3 3 Sudeste 5 Sudeste 0 -- -- 53
2017-07-27 08:00:00 19.6 0 Calma 2 Nordeste 0 -- -- 71
2017-07-27 07:00:00 16.5 0 Calma 4 Noroeste 0 -- -- 78
2017-07-27 06:00:00 16.7 2 Sudoeste 4 Norte 0 -- -- 78
2017-07-27 05:00:00 17.2 0 Calma 5 Norte 0 -- -- 76
2017-07-27 04:00:00 17.6 3 Noroeste 7 Sudoeste 0 -- -- 78
2017-07-27 03:00:00 18.2 4 Norte 10 Norte 0 -- -- 73
2017-07-27 02:00:00 18.6 4 Noroeste 6 Sur 0 -- -- 78
2017-07-27 01:00:00 19.7 3 Noroeste 6 Noroeste 0 -- -- 74
2017-07-27 00:00:00 20.7 3 Oeste 9 Norte 0 -- -- 70
2017-07-26 23:00:00 22 4 Noroeste 6 Noroeste 0 -- -- 67
2017-07-26 22:00:00 23.5 4 Oeste 9 Sudeste 0 -- -- 64
2017-07-26 21:00:00 25.4 4 Sudeste 17 Sudeste 0 -- -- 59
2017-07-26 20:00:00 27.3 10 Sudeste 21 Sudeste 0 -- -- 53
2017-07-26 19:00:00 28.9 14 Sur 26 Sur 0 -- -- 49
2017-07-26 18:00:00 29.8 15 Sur 30 Sudeste 0 -- -- 46
2017-07-26 17:00:00 30.7 16 Sur 31 Sur 0 -- -- 44
2017-07-26 16:00:00 31.4 16 Sur 33 Sudeste 0 -- -- 41
2017-07-26 15:00:00 31.4 18 Sudeste 31 Sudeste 0 -- -- 40
2017-07-26 14:00:00 32 12 Sur 23 Sudoeste 0 -- -- 31
2017-07-26 13:00:00 30.2 9 Sudeste 22 Sudeste 0 -- -- 27
2017-07-26 12:00:00 28.9 9 Sudeste 24 Sur 0 -- -- 27
2017-07-26 11:00:00 27.7 10 Sudeste 19 Sudeste 0 -- -- 32
2017-07-26 10:00:00 24.3 3 Sudoeste 8 Sudoeste 0 -- -- 35
2017-07-26 09:00:00 20.3 3 Sudoeste 7 Sudoeste 0 -- -- 47
2017-07-26 08:00:00 15.8 0 Calma 13 Oeste 0 -- -- 67
2017-07-26 07:00:00 13.4 3 Norte 8 Norte 0 -- -- 72
2017-07-26 06:00:00 13.6 5 Sur 8 Sudoeste 0 -- -- 76
2017-07-26 05:00:00 14.7 0 Calma 8 Norte 0 -- -- 74
2017-07-26 04:00:00 15.2 6 Sudoeste 7 Sudoeste 0 -- -- 74
2017-07-26 03:00:00 16.2 2 Sur 6 Oeste 0 -- -- 72
2017-07-26 02:00:00 17.4 0 Calma 5 Norte 0 -- -- 68
2017-07-26 01:00:00 18.5 0 Calma 6 Noroeste 0 -- -- 66
2017-07-26 00:00:00 20.1 3 Sudoeste 8 Noroeste 0 -- -- 61
2017-07-25 23:00:00 21.5 6 Norte 8 Noroeste 0 -- -- 59
2017-07-25 22:00:00 22.4 4 Sur 18 Sur 0 -- -- 56
2017-07-25 21:00:00 23.6 12 Sur 19 Sudoeste 0 -- -- 51
2017-07-25 20:00:00 26.7 12 Sur 23 Sudeste 0 -- -- 42
2017-07-25 19:00:00 27.8 9 Sur 23 Sudeste 0 -- -- 40
2017-07-25 18:00:00 27.9 13 Sudeste 27 Sudeste 0 -- -- 39
2017-07-25 17:00:00 28.7 16 Sudeste 30 Sudeste 0 -- -- 38
2017-07-25 16:00:00 29.6 18 Sudeste 36 Sudeste 0 -- -- 35
2017-07-25 15:00:00 29.8 21 Sudeste 44 Sudeste 0 -- -- 35
2017-07-25 14:00:00 31.2 9 Sudeste 28 Este 0 -- -- 29
2017-07-25 13:00:00 29.8 22 Sudeste 35 Sudeste 0 -- -- 31
2017-07-25 12:00:00 27.6 12 Noroeste 32 Nordeste 0 -- -- 35
2017-07-25 11:00:00 24.8 19 Nordeste 29 Nordeste 0 -- -- 39
2017-07-25 10:00:00 22.9 18 Norte 32 Norte 0 -- -- 43
2017-07-25 09:00:00 21.1 21 Norte 40 Norte 0 -- -- 47
2017-07-25 08:00:00 19.5 14 Nordeste 29 Norte 0 -- -- 51
2017-07-25 07:00:00 17.5 10 Este 17 Nordeste 0 -- -- 59
2017-07-25 06:00:00 17.5 2 Norte 12 Sudoeste 0 -- -- 58
2017-07-25 05:00:00 19.1 8 Oeste 28 Norte 0 -- -- 53
2017-07-25 04:00:00 19.7 12 Oeste 23 Oeste 0 -- -- 51
2017-07-25 03:00:00 20.4 8 Norte 18 Oeste 0 -- -- 53
2017-07-25 02:00:00 21.1 5 Norte 24 Noroeste 0 -- -- 53
2017-07-25 01:00:00 22.1 8 Oeste 30 Noroeste 0 -- -- 51
2017-07-25 00:00:00 23 12 Oeste 37 Noroeste 0 -- -- 50
2017-07-24 23:00:00 24.1 16 Noroeste 32 Noroeste 0 -- -- 48
2017-07-24 22:00:00 25.8 9 Norte 21 Norte 0 -- -- 44
2017-07-24 21:00:00 27.4 6 Sudeste 15 Sur 0 -- -- 50
2017-07-24 20:00:00 29.2 13 Sur 22 Sur 0 -- -- 46
2017-07-24 19:00:00 29.7 13 Sur 25 Sur 0 -- -- 44
2017-07-24 18:00:00 31.4 17 Sudeste 27 Sudeste 0 -- -- 40
2017-07-24 17:00:00 31.2 10 Sur 24 Sur 0 -- -- 41
2017-07-24 16:00:00 30.4 14 Sur 27 Sudoeste 0 -- -- 43
2017-07-24 15:00:00 30.4 9 Este 24 Nordeste 0 -- -- 39
2017-07-24 14:00:00 30.7 18 Este 34 Este 0 -- -- 39
2017-07-24 13:00:00 29.8 15 Nordeste 35 Norte 0 -- -- 41
2017-07-24 12:00:00 28.4 17 Nordeste 30 Norte 0 -- -- 43
2017-07-24 11:00:00 26.8 17 Norte 35 Norte 0 -- -- 47
2017-07-24 10:00:00 25.8 13 Norte 32 Norte 0 -- -- 50
2017-07-24 09:00:00 24.4 14 Norte 26 Oeste 0 -- -- 52
2017-07-24 08:00:00 22.2 5 Nordeste 14 Sudeste 0 -- -- 56
2017-07-24 07:00:00 21.4 6 Nordeste 25 Nordeste 0 -- -- 56
2017-07-24 06:00:00 21.2 8 Norte 18 Noroeste 0 -- -- 57
2017-07-24 05:00:00 18.9 7 Norte 18 Noroeste 0 -- -- 76
2017-07-24 04:00:00 18 2 Sur 8 Noroeste 0 -- -- 91
2017-07-24 03:00:00 18.9 5 Noroeste 8 Noroeste 0 -- -- 90
2017-07-24 02:00:00 20.1 2 Norte 8 Noroeste 0 -- -- 87
2017-07-24 01:00:00 20.8 2 Noroeste 8 Noroeste 0 -- -- 84
2017-07-24 00:00:00 22.3 0 Calma 5 Este 0 -- -- 81
2017-07-23 23:00:00 23.2 4 Sudeste 12 Sur 0 -- -- 78
2017-07-23 22:00:00 24 6 Sur 14 Sudeste 0 -- -- 78
2017-07-23 21:00:00 25 12 Sudeste 19 Sudeste 0 -- -- 68
2017-07-23 20:00:00 26.4 10 Sudeste 19 Sudeste 0 -- -- 65
2017-07-23 19:00:00 26.8 9 Sudeste 28 Sudeste 0 -- -- 62
2017-07-23 18:00:00 25.2 15 Sudeste 37 Sudeste 0 -- -- 72
2017-07-23 17:00:00 27 7 Nordeste 29 Sudeste 0 -- -- 64
2017-07-23 16:00:00 28 18 Sudeste 32 Sudeste 0 -- -- 63
2017-07-23 15:00:00 30.1 14 Sudeste 29 Sudeste 0 -- -- 55
2017-07-23 14:00:00 29.1 13 Sudeste 22 Sudeste 0 -- -- 59
2017-07-23 13:00:00 26.3 3 Oeste 12 Nordeste 0 -- -- 66
2017-07-23 12:00:00 25 4 Oeste 14 Este 0 -- -- 71
2017-07-23 11:00:00 24.2 8 Este 15 Este 0 -- -- 74
2017-07-23 10:00:00 23.5 3 Noroeste 10 Este 0 -- -- 78
2017-07-23 09:00:00 23 2 Nordeste 11 Oeste 0 -- -- 81
2017-07-23 08:00:00 19.6 7 Oeste 10 Sudoeste 0 -- -- 94
2017-07-23 07:00:00 18.4 0 Calma 8 Noroeste 0 -- -- 93
2017-07-23 06:00:00 18.5 2 Noroeste 6 Noroeste 0 -- -- 92
2017-07-23 05:00:00 19.2 0 Calma 4 Sur 0 -- -- 91
2017-07-23 04:00:00 19.8 3 Sudoeste 5 Sudoeste 0 -- -- 89
2017-07-23 03:00:00 20.9 0 Calma 9 Noroeste 0 -- -- 87
2017-07-23 02:00:00 21.2 0 Calma 5 Noroeste 0 -- -- 86
2017-07-23 01:00:00 22.2 2 Sur 8 Noroeste 0 -- -- 84
2017-07-23 00:00:00 22.7 4 Noroeste 7 Noroeste 0 -- -- 84